sensor_id;sensor_type;location;lat;lon;timestamp;pressure;altitude;pressure_sealevel;temperature;humidity
73870;BME280;64924;42.140;24.762;2024-03-07T00:02:09;99647.00;;;8.89;75.17
73870;BME280;64924;42.140;24.762;2024-03-07T00:04:34;99669.13;;;8.93;75.05
73870;BME280;64924;42.140;24.762;2024-03-07T00:07:02;99652.31;;;8.97;75.20
73870;BME280;64924;42.140;24.762;2024-03-07T00:09:31;99598.88;;;8.91;74.54
73870;BME280;64924;42.140;24.762;2024-03-07T00:11:56;99644.19;;;9.12;74.59
73870;BME280;64924;42.140;24.762;2024-03-07T00:14:22;99644.47;;;9.17;74.51
73870;BME280;64924;42.140;24.762;2024-03-07T00:16:52;99637.63;;;8.92;75.35
73870;BME280;64924;42.140;24.762;2024-03-07T00:19:18;99646.44;;;9.09;75.08
73870;BME280;64924;42.140;24.762;2024-03-07T00:21:43;99646.72;;;8.99;75.95
73870;BME280;64924;42.140;24.762;2024-03-07T00:24:09;99588.69;;;8.79;75.11
73870;BME280;64924;42.140;24.762;2024-03-07T00:26:34;99644.56;;;9.09;75.48
73870;BME280;64924;42.140;24.762;2024-03-07T00:28:59;99629.44;;;9.00;75.35
73870;BME280;64924;42.140;24.762;2024-03-07T00:31:25;99626.44;;;9.10;74.99
73870;BME280;64924;42.140;24.762;2024-03-07T00:33:51;99638.13;;;9.10;74.94
73870;BME280;64924;42.140;24.762;2024-03-07T00:36:17;99645.41;;;9.10;75.03
73870;BME280;64924;42.140;24.762;2024-03-07T00:38:42;99653.72;;;9.08;74.98
73870;BME280;64924;42.140;24.762;2024-03-07T00:41:08;99637.47;;;9.08;74.93
73870;BME280;64924;42.140;24.762;2024-03-07T00:43:35;99648.59;;;9.13;74.68
73870;BME280;64924;42.140;24.762;2024-03-07T00:46:01;99647.38;;;9.01;74.77
73870;BME280;64924;42.140;24.762;2024-03-07T00:48:26;99635.97;;;8.91;74.99
73870;BME280;64924;42.140;24.762;2024-03-07T00:50:52;99640.09;;;8.87;75.46
73870;BME280;64924;42.140;24.762;2024-03-07T00:53:17;99623.22;;;8.62;76.15
73870;BME280;64924;42.140;24.762;2024-03-07T00:55:43;99642.94;;;8.70;76.07
73870;BME280;64924;42.140;24.762;2024-03-07T00:58:09;99644.16;;;8.68;76.16
73870;BME280;64924;42.140;24.762;2024-03-07T01:00:34;99542.13;;;8.31;75.64
73870;BME280;64924;42.140;24.762;2024-03-07T01:03:00;99621.94;;;8.73;75.78
73870;BME280;64924;42.140;24.762;2024-03-07T01:05:26;99625.19;;;8.68;75.89
73870;BME280;64924;42.140;24.762;2024-03-07T01:07:51;99626.81;;;8.77;74.91
73870;BME280;64924;42.140;24.762;2024-03-07T01:10:18;99618.88;;;8.76;75.32
73870;BME280;64924;42.140;24.762;2024-03-07T01:12:43;99624.34;;;8.67;75.29
73870;BME280;64924;42.140;24.762;2024-03-07T01:15:09;99623.50;;;8.67;74.80
73870;BME280;64924;42.140;24.762;2024-03-07T01:17:36;99650.88;;;8.72;75.14
73870;BME280;64924;42.140;24.762;2024-03-07T01:20:02;99588.31;;;8.52;74.47
73870;BME280;64924;42.140;24.762;2024-03-07T01:22:28;99631.97;;;8.87;74.17
73870;BME280;64924;42.140;24.762;2024-03-07T01:24:53;99634.56;;;8.95;73.71
73870;BME280;64924;42.140;24.762;2024-03-07T01:27:19;99602.69;;;8.67;72.90
73870;BME280;64924;42.140;24.762;2024-03-07T01:29:45;99619.63;;;8.84;72.67
73870;BME280;64924;42.140;24.762;2024-03-07T01:32:10;99623.72;;;8.80;72.72
73870;BME280;64924;42.140;24.762;2024-03-07T01:34:36;99617.56;;;8.71;73.13
73870;BME280;64924;42.140;24.762;2024-03-07T01:37:02;99633.81;;;8.71;73.40
73870;BME280;64924;42.140;24.762;2024-03-07T01:39:27;99648.72;;;8.67;73.15
73870;BME280;64924;42.140;24.762;2024-03-07T01:41:53;99644.16;;;8.68;73.17
73870;BME280;64924;42.140;24.762;2024-03-07T01:44:19;99633.31;;;8.68;73.24
73870;BME280;64924;42.140;24.762;2024-03-07T01:46:45;99641.94;;;8.71;72.96
73870;BME280;64924;42.140;24.762;2024-03-07T01:49:10;99640.59;;;8.67;72.92
73870;BME280;64924;42.140;24.762;2024-03-07T01:51:37;99636.31;;;8.73;73.25
73870;BME280;64924;42.140;24.762;2024-03-07T01:54:03;99643.53;;;8.81;72.71
73870;BME280;64924;42.140;24.762;2024-03-07T01:56:29;99623.84;;;8.87;72.30
73870;BME280;64924;42.140;24.762;2024-03-07T01:58:55;99632.41;;;8.76;72.95
73870;BME280;64924;42.140;24.762;2024-03-07T02:01:22;99577.56;;;8.59;72.23
73870;BME280;64924;42.140;24.762;2024-03-07T02:03:48;99627.75;;;8.84;72.00
73870;BME280;64924;42.140;24.762;2024-03-07T02:06:14;99628.59;;;8.85;71.96
73870;BME280;64924;42.140;24.762;2024-03-07T02:08:40;99636.13;;;8.75;72.27
73870;BME280;64924;42.140;24.762;2024-03-07T02:11:06;99585.50;;;8.60;71.83
73870;BME280;64924;42.140;24.762;2024-03-07T02:13:31;99635.31;;;8.74;71.81
73870;BME280;64924;42.140;24.762;2024-03-07T02:15:57;99632.47;;;8.67;72.37
73870;BME280;64924;42.140;24.762;2024-03-07T02:18:23;99634.63;;;8.72;72.49
73870;BME280;64924;42.140;24.762;2024-03-07T02:20:49;99624.16;;;8.69;72.36
73870;BME280;64924;42.140;24.762;2024-03-07T02:23:14;99599.78;;;8.31;72.22
73870;BME280;64924;42.140;24.762;2024-03-07T02:25:40;99626.84;;;8.40;72.70
73870;BME280;64924;42.140;24.762;2024-03-07T02:28:06;99631.16;;;8.49;72.19
73870;BME280;64924;42.140;24.762;2024-03-07T02:30:32;99650.09;;;8.49;72.43
73870;BME280;64924;42.140;24.762;2024-03-07T02:32:59;99633.09;;;8.40;72.72
73870;BME280;64924;42.140;24.762;2024-03-07T02:35:35;99636.38;;;8.50;72.55
73870;BME280;64924;42.140;24.762;2024-03-07T02:38:04;99612.81;;;8.36;72.89
73870;BME280;64924;42.140;24.762;2024-03-07T02:40:31;99623.66;;;8.28;73.62
73870;BME280;64924;42.140;24.762;2024-03-07T02:42:57;99628.06;;;8.29;73.78
73870;BME280;64924;42.140;24.762;2024-03-07T02:45:23;99636.63;;;8.41;73.42
73870;BME280;64924;42.140;24.762;2024-03-07T02:47:49;99640.66;;;8.45;72.87
73870;BME280;64924;42.140;24.762;2024-03-07T02:50:14;99633.28;;;8.38;72.74
73870;BME280;64924;42.140;24.762;2024-03-07T02:52:40;99640.00;;;8.43;73.06
73870;BME280;64924;42.140;24.762;2024-03-07T02:55:06;99608.94;;;8.30;72.43
73870;BME280;64924;42.140;24.762;2024-03-07T02:57:35;99638.72;;;8.53;72.34
73870;BME280;64924;42.140;24.762;2024-03-07T03:00:02;99633.19;;;8.47;72.43
73870;BME280;64924;42.140;24.762;2024-03-07T03:02:28;99617.69;;;8.41;72.09
73870;BME280;64924;42.140;24.762;2024-03-07T03:04:53;99628.63;;;8.47;72.21
73870;BME280;64924;42.140;24.762;2024-03-07T03:07:20;99621.66;;;8.53;71.88
73870;BME280;64924;42.140;24.762;2024-03-07T03:09:46;99619.91;;;8.37;71.61
73870;BME280;64924;42.140;24.762;2024-03-07T03:12:12;99632.72;;;8.43;71.77
73870;BME280;64924;42.140;24.762;2024-03-07T03:14:38;99631.78;;;8.28;72.08
73870;BME280;64924;42.140;24.762;2024-03-07T03:17:03;99637.88;;;8.30;71.80
73870;BME280;64924;42.140;24.762;2024-03-07T03:19:29;99623.19;;;8.24;72.14
73870;BME280;64924;42.140;24.762;2024-03-07T03:21:54;99622.13;;;8.11;72.21
73870;BME280;64924;42.140;24.762;2024-03-07T03:24:21;99628.41;;;8.11;72.21
73870;BME280;64924;42.140;24.762;2024-03-07T03:26:47;99629.31;;;8.18;72.08
73870;BME280;64924;42.140;24.762;2024-03-07T03:29:13;99633.38;;;7.99;72.19
73870;BME280;64924;42.140;24.762;2024-03-07T03:31:39;99638.91;;;8.06;72.26
73870;BME280;64924;42.140;24.762;2024-03-07T03:34:05;99630.06;;;8.12;71.88
73870;BME280;64924;42.140;24.762;2024-03-07T03:36:30;99629.13;;;8.05;72.00
73870;BME280;64924;42.140;24.762;2024-03-07T03:38:56;99628.44;;;8.03;72.06
73870;BME280;64924;42.140;24.762;2024-03-07T03:41:22;99633.03;;;8.02;72.23
73870;BME280;64924;42.140;24.762;2024-03-07T03:43:48;99635.00;;;8.09;72.44
73870;BME280;64924;42.140;24.762;2024-03-07T03:46:13;99621.34;;;8.25;71.33
73870;BME280;64924;42.140;24.762;2024-03-07T03:48:40;99597.31;;;8.07;71.04
73870;BME280;64924;42.140;24.762;2024-03-07T03:51:08;99632.25;;;8.17;70.91
73870;BME280;64924;42.140;24.762;2024-03-07T03:53:35;99622.31;;;8.09;71.09
73870;BME280;64924;42.140;24.762;2024-03-07T03:56:00;99580.34;;;7.90;71.24
73870;BME280;64924;42.140;24.762;2024-03-07T03:58:26;99628.72;;;8.31;71.02
73870;BME280;64924;42.140;24.762;2024-03-07T04:00:51;99573.50;;;8.02;70.85
73870;BME280;64924;42.140;24.762;2024-03-07T04:03:17;99591.06;;;8.07;71.10
73870;BME280;64924;42.140;24.762;2024-03-07T04:05:42;99631.78;;;8.28;70.60
73870;BME280;64924;42.140;24.762;2024-03-07T04:08:08;99608.63;;;8.11;71.13
73870;BME280;64924;42.140;24.762;2024-03-07T04:10:35;99634.31;;;8.29;70.89
73870;BME280;64924;42.140;24.762;2024-03-07T04:13:00;99590.03;;;7.85;71.36
73870;BME280;64924;42.140;24.762;2024-03-07T04:15:26;99639.53;;;8.16;71.60
73870;BME280;64924;42.140;24.762;2024-03-07T04:17:52;99630.00;;;8.20;71.46
73870;BME280;64924;42.140;24.762;2024-03-07T04:20:18;99598.81;;;8.10;71.10
73870;BME280;64924;42.140;24.762;2024-03-07T04:22:44;99622.44;;;8.38;70.43
73870;BME280;64924;42.140;24.762;2024-03-07T04:25:09;99628.63;;;8.47;70.67
73870;BME280;64924;42.140;24.762;2024-03-07T04:27:38;99630.13;;;8.50;70.07
73870;BME280;64924;42.140;24.762;2024-03-07T04:30:06;99644.34;;;8.66;69.85
73870;BME280;64924;42.140;24.762;2024-03-07T04:32:33;99625.38;;;8.66;69.43
73870;BME280;64924;42.140;24.762;2024-03-07T04:34:59;99610.16;;;8.65;68.98
73870;BME280;64924;42.140;24.762;2024-03-07T04:37:26;99627.00;;;8.76;69.40
73870;BME280;64924;42.140;24.762;2024-03-07T04:39:54;99636.59;;;8.63;69.79
73870;BME280;64924;42.140;24.762;2024-03-07T04:42:20;99634.81;;;8.70;69.65
73870;BME280;64924;42.140;24.762;2024-03-07T04:44:46;99632.75;;;8.58;70.11
73870;BME280;64924;42.140;24.762;2024-03-07T04:47:11;99637.13;;;8.44;70.97
73870;BME280;64924;42.140;24.762;2024-03-07T04:49:37;99635.50;;;8.35;71.17
73870;BME280;64924;42.140;24.762;2024-03-07T04:52:03;99586.25;;;8.17;71.19
73870;BME280;64924;42.140;24.762;2024-03-07T04:54:29;99605.06;;;8.33;71.00
73870;BME280;64924;42.140;24.762;2024-03-07T04:56:56;99641.44;;;8.53;70.75
73870;BME280;64924;42.140;24.762;2024-03-07T04:59:22;99652.88;;;8.41;71.29
73870;BME280;64924;42.140;24.762;2024-03-07T05:01:49;99607.28;;;8.07;71.92
73870;BME280;64924;42.140;24.762;2024-03-07T05:04:17;99630.75;;;8.14;72.09
73870;BME280;64924;42.140;24.762;2024-03-07T05:06:43;99654.66;;;8.25;72.64
73870;BME280;64924;42.140;24.762;2024-03-07T05:09:10;99654.16;;;8.22;73.03
73870;BME280;64924;42.140;24.762;2024-03-07T05:11:48;99611.44;;;7.94;73.44
73870;BME280;64924;42.140;24.762;2024-03-07T05:14:14;99616.53;;;7.89;73.41
73870;BME280;64924;42.140;24.762;2024-03-07T05:16:41;99634.69;;;8.03;73.71
73870;BME280;64924;42.140;24.762;2024-03-07T05:19:08;99649.03;;;8.35;73.60
73870;BME280;64924;42.140;24.762;2024-03-07T05:21:34;99644.41;;;8.44;72.96
73870;BME280;64924;42.140;24.762;2024-03-07T05:24:06;99666.91;;;8.59;72.92
73870;BME280;64924;42.140;24.762;2024-03-07T05:26:36;99648.78;;;8.45;73.05
73870;BME280;64924;42.140;24.762;2024-03-07T05:29:06;99658.22;;;8.49;73.26
73870;BME280;64924;42.140;24.762;2024-03-07T05:31:36;99668.41;;;8.47;73.61
73870;BME280;64924;42.140;24.762;2024-03-07T05:34:02;99678.38;;;8.46;73.32
73870;BME280;64924;42.140;24.762;2024-03-07T05:36:37;99657.31;;;8.33;73.68
73870;BME280;64924;42.140;24.762;2024-03-07T05:39:14;99668.41;;;8.47;73.98
73870;BME280;64924;42.140;24.762;2024-03-07T05:41:42;99668.03;;;8.50;73.91
73870;BME280;64924;42.140;24.762;2024-03-07T05:44:08;99623.28;;;8.39;73.01
73870;BME280;64924;42.140;24.762;2024-03-07T05:46:35;99656.94;;;8.59;73.12
73870;BME280;64924;42.140;24.762;2024-03-07T05:49:00;99661.88;;;8.56;72.87
73870;BME280;64924;42.140;24.762;2024-03-07T05:51:26;99673.28;;;8.66;73.08
73870;BME280;64924;42.140;24.762;2024-03-07T05:53:51;99651.31;;;8.46;73.30
73870;BME280;64924;42.140;24.762;2024-03-07T05:56:17;99698.66;;;8.88;72.64
73870;BME280;64924;42.140;24.762;2024-03-07T05:58:42;99702.59;;;9.00;72.12
73870;BME280;64924;42.140;24.762;2024-03-07T06:01:08;99707.81;;;9.01;71.91
73870;BME280;64924;42.140;24.762;2024-03-07T06:03:34;99701.38;;;9.02;71.83
73870;BME280;64924;42.140;24.762;2024-03-07T06:06:00;99691.69;;;8.70;72.78
73870;BME280;64924;42.140;24.762;2024-03-07T06:08:25;99699.47;;;8.74;73.28
73870;BME280;64924;42.140;24.762;2024-03-07T06:10:52;99693.88;;;8.75;72.95
73870;BME280;64924;42.140;24.762;2024-03-07T06:13:18;99706.59;;;8.89;72.70
73870;BME280;64924;42.140;24.762;2024-03-07T06:15:44;99701.09;;;8.97;72.56
73870;BME280;64924;42.140;24.762;2024-03-07T06:18:11;99695.22;;;9.09;72.23
73870;BME280;64924;42.140;24.762;2024-03-07T06:20:41;99721.31;;;9.24;71.84
73870;BME280;64924;42.140;24.762;2024-03-07T06:23:08;99722.25;;;9.17;71.82
73870;BME280;64924;42.140;24.762;2024-03-07T06:25:34;99674.00;;;8.83;71.81
73870;BME280;64924;42.140;24.762;2024-03-07T06:28:05;99708.84;;;9.00;72.81
73870;BME280;64924;42.140;24.762;2024-03-07T06:30:42;99716.69;;;8.95;73.20
73870;BME280;64924;42.140;24.762;2024-03-07T06:33:09;99698.66;;;8.88;73.08
73870;BME280;64924;42.140;24.762;2024-03-07T06:35:35;99713.78;;;8.82;74.58
73870;BME280;64924;42.140;24.762;2024-03-07T06:38:08;99715.19;;;8.93;74.87
73870;BME280;64924;42.140;24.762;2024-03-07T06:40:34;99712.03;;;8.89;74.83
73870;BME280;64924;42.140;24.762;2024-03-07T06:43:00;99710.91;;;8.98;74.45
73870;BME280;64924;42.140;24.762;2024-03-07T06:45:25;99662.13;;;8.84;73.66
73870;BME280;64924;42.140;24.762;2024-03-07T06:47:51;99707.63;;;9.03;74.31
73870;BME280;64924;42.140;24.762;2024-03-07T06:50:19;99640.91;;;8.35;75.26
73870;BME280;64924;42.140;24.762;2024-03-07T06:52:48;99719.56;;;8.94;74.69
73870;BME280;64924;42.140;24.762;2024-03-07T06:55:18;99702.59;;;9.00;74.62
73870;BME280;64924;42.140;24.762;2024-03-07T06:57:45;99708.28;;;8.90;74.69
73870;BME280;64924;42.140;24.762;2024-03-07T07:00:12;99707.28;;;9.06;74.51
73870;BME280;64924;42.140;24.762;2024-03-07T07:02:38;99676.16;;;8.87;74.46
73870;BME280;64924;42.140;24.762;2024-03-07T07:05:06;99716.06;;;9.08;74.16
73870;BME280;64924;42.140;24.762;2024-03-07T07:07:38;99712.47;;;8.93;74.34
73870;BME280;64924;42.140;24.762;2024-03-07T07:10:07;99713.91;;;9.03;74.18
73870;BME280;64924;42.140;24.762;2024-03-07T07:12:38;99722.03;;;9.03;74.04
73870;BME280;64924;42.140;24.762;2024-03-07T07:15:03;99721.91;;;8.97;73.77
73870;BME280;64924;42.140;24.762;2024-03-07T07:17:29;99721.00;;;8.67;74.65
73870;BME280;64924;42.140;24.762;2024-03-07T07:19:57;99723.28;;;8.78;74.13
73870;BME280;64924;42.140;24.762;2024-03-07T07:22:23;99665.03;;;8.45;74.14
73870;BME280;64924;42.140;24.762;2024-03-07T07:24:48;99666.84;;;8.52;74.03
73870;BME280;64924;42.140;24.762;2024-03-07T07:27:15;99710.44;;;8.95;73.96
73870;BME280;64924;42.140;24.762;2024-03-07T07:29:40;99675.56;;;8.77;73.63
73870;BME280;64924;42.140;24.762;2024-03-07T07:32:07;99717.91;;;8.93;73.15
73870;BME280;64924;42.140;24.762;2024-03-07T07:34:33;99727.81;;;9.00;72.81
73870;BME280;64924;42.140;24.762;2024-03-07T07:36:59;99736.28;;;9.20;72.40
73870;BME280;64924;42.140;24.762;2024-03-07T07:39:24;99736.25;;;9.35;71.66
73870;BME280;64924;42.140;24.762;2024-03-07T07:41:49;99744.88;;;9.38;71.18
73870;BME280;64924;42.140;24.762;2024-03-07T07:44:15;99745.78;;;9.31;71.57
73870;BME280;64924;42.140;24.762;2024-03-07T07:46:41;99746.38;;;9.26;71.95
73870;BME280;64924;42.140;24.762;2024-03-07T07:49:06;99738.81;;;9.22;71.44
73870;BME280;64924;42.140;24.762;2024-03-07T07:51:32;99748.50;;;9.16;72.28
73870;BME280;64924;42.140;24.762;2024-03-07T07:53:57;99744.91;;;9.01;72.35
73870;BME280;64924;42.140;24.762;2024-03-07T07:56:24;99752.50;;;9.05;72.20
73870;BME280;64924;42.140;24.762;2024-03-07T07:58:50;99741.47;;;9.07;72.35
73870;BME280;64924;42.140;24.762;2024-03-07T08:01:17;99745.22;;;9.06;72.01
73870;BME280;64924;42.140;24.762;2024-03-07T08:03:46;99749.66;;;9.22;71.47
73870;BME280;64924;42.140;24.762;2024-03-07T08:06:11;99748.28;;;9.03;71.94
73870;BME280;64924;42.140;24.762;2024-03-07T08:08:37;99753.78;;;8.95;72.15
73870;BME280;64924;42.140;24.762;2024-03-07T08:11:03;99749.91;;;8.75;72.91
73870;BME280;64924;42.140;24.762;2024-03-07T08:13:28;99757.19;;;8.74;73.23
73870;BME280;64924;42.140;24.762;2024-03-07T08:15:54;99763.94;;;8.78;73.27
73870;BME280;64924;42.140;24.762;2024-03-07T08:18:20;99765.63;;;8.94;72.98
73870;BME280;64924;42.140;24.762;2024-03-07T08:20:46;99749.31;;;9.02;72.32
73870;BME280;64924;42.140;24.762;2024-03-07T08:23:12;99753.63;;;9.11;72.51
73870;BME280;64924;42.140;24.762;2024-03-07T08:25:38;99754.97;;;9.15;72.25
73870;BME280;64924;42.140;24.762;2024-03-07T08:28:07;99718.84;;;9.00;71.63
73870;BME280;64924;42.140;24.762;2024-03-07T08:30:33;99766.94;;;9.35;71.17
73870;BME280;64924;42.140;24.762;2024-03-07T08:33:00;99776.56;;;9.23;71.67
73870;BME280;64924;42.140;24.762;2024-03-07T08:35:28;99777.31;;;9.32;71.41
73870;BME280;64924;42.140;24.762;2024-03-07T08:37:54;99786.22;;;9.41;71.30
73870;BME280;64924;42.140;24.762;2024-03-07T08:40:30;99768.44;;;9.38;71.17
73870;BME280;64924;42.140;24.762;2024-03-07T08:43:00;99776.81;;;9.28;71.75
73870;BME280;64924;42.140;24.762;2024-03-07T08:45:26;99732.44;;;9.15;71.41
73870;BME280;64924;42.140;24.762;2024-03-07T08:47:53;99771.63;;;9.42;71.13
73870;BME280;64924;42.140;24.762;2024-03-07T08:50:20;99734.75;;;9.32;70.92
73870;BME280;64924;42.140;24.762;2024-03-07T08:52:47;99782.00;;;9.67;70.29
73870;BME280;64924;42.140;24.762;2024-03-07T08:55:17;99779.88;;;9.63;70.37
73870;BME280;64924;42.140;24.762;2024-03-07T08:57:44;99784.53;;;9.69;70.59
73870;BME280;64924;42.140;24.762;2024-03-07T09:00:12;99783.50;;;9.85;69.97
73870;BME280;64924;42.140;24.762;2024-03-07T09:02:50;99785.56;;;9.97;69.52
73870;BME280;64924;42.140;24.762;2024-03-07T09:05:20;99771.69;;;10.07;69.23
73870;BME280;64924;42.140;24.762;2024-03-07T09:07:47;99790.56;;;10.15;68.90
73870;BME280;64924;42.140;24.762;2024-03-07T09:10:13;99771.34;;;9.95;69.23
73870;BME280;64924;42.140;24.762;2024-03-07T09:12:42;99756.09;;;9.94;68.50
73870;BME280;64924;42.140;24.762;2024-03-07T09:15:09;99796.00;;;10.15;68.76
73870;BME280;64924;42.140;24.762;2024-03-07T09:17:38;99795.47;;;10.20;68.58
73870;BME280;64924;42.140;24.762;2024-03-07T09:20:08;99756.13;;;10.16;68.10
73870;BME280;64924;42.140;24.762;2024-03-07T09:22:40;99809.34;;;10.46;67.63
73870;BME280;64924;42.140;24.762;2024-03-07T09:25:06;99792.59;;;10.43;67.75
73870;BME280;64924;42.140;24.762;2024-03-07T09:27:32;99779.66;;;10.45;67.17
73870;BME280;64924;42.140;24.762;2024-03-07T09:29:58;99745.00;;;10.25;66.66
73870;BME280;64924;42.140;24.762;2024-03-07T09:32:23;99786.38;;;10.63;66.51
73870;BME280;64924;42.140;24.762;2024-03-07T09:34:49;99810.34;;;10.81;66.09
73870;BME280;64924;42.140;24.762;2024-03-07T09:37:15;99801.34;;;10.81;66.11
73870;BME280;64924;42.140;24.762;2024-03-07T09:39:40;99799.56;;;10.66;66.27
73870;BME280;64924;42.140;24.762;2024-03-07T09:42:07;99776.25;;;10.79;66.11
73870;BME280;64924;42.140;24.762;2024-03-07T09:44:40;99805.03;;;11.16;65.20
73870;BME280;64924;42.140;24.762;2024-03-07T09:47:07;99810.28;;;11.17;64.37
73870;BME280;64924;42.140;24.762;2024-03-07T09:49:33;99814.09;;;11.23;64.29
73870;BME280;64924;42.140;24.762;2024-03-07T09:52:04;99802.50;;;11.14;64.70
73870;BME280;64924;42.140;24.762;2024-03-07T09:54:34;99822.16;;;10.88;65.27
73870;BME280;64924;42.140;24.762;2024-03-07T09:57:00;99816.50;;;10.90;65.40
73870;BME280;64924;42.140;24.762;2024-03-07T09:59:28;99818.31;;;10.83;65.79
73870;BME280;64924;42.140;24.762;2024-03-07T10:01:59;99824.03;;;10.88;65.71
73870;BME280;64924;42.140;24.762;2024-03-07T10:04:48;99828.66;;;11.15;65.21
73870;BME280;64924;42.140;24.762;2024-03-07T10:07:15;99822.66;;;10.98;65.48
73870;BME280;64924;42.140;24.762;2024-03-07T10:09:41;99772.41;;;10.66;65.74
73870;BME280;64924;42.140;24.762;2024-03-07T10:12:07;99821.81;;;10.98;65.61
73870;BME280;64924;42.140;24.762;2024-03-07T10:14:55;99820.97;;;10.97;65.44
73870;BME280;64924;42.140;24.762;2024-03-07T10:17:25;99830.25;;;11.03;65.46
73870;BME280;64924;42.140;24.762;2024-03-07T10:19:54;99821.94;;;10.90;65.79
73870;BME280;64924;42.140;24.762;2024-03-07T10:22:20;99823.09;;;10.81;65.85
73870;BME280;64924;42.140;24.762;2024-03-07T10:24:53;99813.78;;;10.90;65.80
73870;BME280;64924;42.140;24.762;2024-03-07T10:27:22;99821.69;;;10.85;66.13
73870;BME280;64924;42.140;24.762;2024-03-07T10:29:48;99831.72;;;10.84;65.91
73870;BME280;64924;42.140;24.762;2024-03-07T10:32:24;99827.38;;;10.90;65.88
73870;BME280;64924;42.140;24.762;2024-03-07T10:34:51;99841.75;;;10.84;66.59
73870;BME280;64924;42.140;24.762;2024-03-07T10:37:17;99838.00;;;10.85;67.19
73870;BME280;64924;42.140;24.762;2024-03-07T10:39:45;99829.16;;;10.76;67.14
73870;BME280;64924;42.140;24.762;2024-03-07T10:42:14;99840.72;;;10.85;67.34
73870;BME280;64924;42.140;24.762;2024-03-07T10:44:47;99839.78;;;10.78;67.56
73870;BME280;64924;42.140;24.762;2024-03-07T10:47:16;99829.06;;;10.69;67.55
73870;BME280;64924;42.140;24.762;2024-03-07T10:55:19;99830.56;;;10.72;68.06
73870;BME280;64924;42.140;24.762;2024-03-07T10:58:02;99831.25;;;10.81;68.58
73870;BME280;64924;42.140;24.762;2024-03-07T11:00:30;99812.97;;;10.68;68.67
73870;BME280;64924;42.140;24.762;2024-03-07T11:03:09;99837.31;;;10.76;69.04
73870;BME280;64924;42.140;24.762;2024-03-07T11:05:35;99767.47;;;10.34;69.38
73870;BME280;64924;42.140;24.762;2024-03-07T11:08:02;99815.72;;;10.53;70.19
73870;BME280;64924;42.140;24.762;2024-03-07T11:10:38;99824.78;;;10.60;70.06
73870;BME280;64924;42.140;24.762;2024-03-07T11:13:05;99820.50;;;10.51;70.76
73870;BME280;64924;42.140;24.762;2024-03-07T11:15:33;99805.41;;;10.49;71.23
73870;BME280;64924;42.140;24.762;2024-03-07T11:17:59;99814.72;;;10.10;72.49
73870;BME280;64924;42.140;24.762;2024-03-07T11:20:26;99783.31;;;9.86;72.37
73870;BME280;64924;42.140;24.762;2024-03-07T11:22:52;99782.28;;;9.87;72.79
73870;BME280;64924;42.140;24.762;2024-03-07T11:25:21;99816.41;;;10.11;72.20
73870;BME280;64924;42.140;24.762;2024-03-07T11:27:55;99722.13;;;9.84;71.58
73870;BME280;64924;42.140;24.762;2024-03-07T11:30:22;99794.78;;;10.18;72.02
73870;BME280;64924;42.140;24.762;2024-03-07T11:32:48;99804.34;;;10.14;71.52
73870;BME280;64924;42.140;24.762;2024-03-07T11:35:31;99796.75;;;10.09;72.58
73870;BME280;64924;42.140;24.762;2024-03-07T11:37:58;99767.88;;;9.72;72.38
73870;BME280;64924;42.140;24.762;2024-03-07T11:42:51;99773.50;;;9.85;72.95
73870;BME280;64924;42.140;24.762;2024-03-07T11:45:18;99771.91;;;9.76;73.34
73870;BME280;64924;42.140;24.762;2024-03-07T11:47:57;99733.28;;;9.59;74.20
73870;BME280;64924;42.140;24.762;2024-03-07T11:50:41;99772.84;;;9.68;74.94
73870;BME280;64924;42.140;24.762;2024-03-07T11:53:08;99762.28;;;9.59;75.09
73870;BME280;64924;42.140;24.762;2024-03-07T11:58:17;99726.91;;;9.37;75.79
73870;BME280;64924;42.140;24.762;2024-03-07T12:00:44;99739.81;;;9.35;76.62
73870;BME280;64924;42.140;24.762;2024-03-07T12:03:16;99746.38;;;9.26;76.64
73870;BME280;64924;42.140;24.762;2024-03-07T12:05:48;99759.75;;;9.43;76.98
73870;BME280;64924;42.140;24.762;2024-03-07T12:08:14;99771.25;;;9.45;76.43
73870;BME280;64924;42.140;24.762;2024-03-07T12:10:42;99772.84;;;9.39;76.85
73870;BME280;64924;42.140;24.762;2024-03-07T12:13:13;99771.81;;;9.55;76.61
73870;BME280;64924;42.140;24.762;2024-03-07T12:15:40;99769.69;;;9.65;76.47
73870;BME280;64924;42.140;24.762;2024-03-07T12:18:06;99762.28;;;9.59;76.43
73870;BME280;64924;42.140;24.762;2024-03-07T12:20:42;99698.88;;;9.30;76.82
73870;BME280;64924;42.140;24.762;2024-03-07T12:23:12;99743.56;;;9.34;76.76
73870;BME280;64924;42.140;24.762;2024-03-07T12:25:38;99751.59;;;9.43;76.72
73870;BME280;64924;42.140;24.762;2024-03-07T12:28:12;99755.63;;;9.32;76.45
73870;BME280;64924;42.140;24.762;2024-03-07T12:30:51;99750.94;;;9.11;77.11
73870;BME280;64924;42.140;24.762;2024-03-07T12:33:18;99752.69;;;9.04;77.72
73870;BME280;64924;42.140;24.762;2024-03-07T12:35:48;99718.34;;;8.82;78.14
73870;BME280;64924;42.140;24.762;2024-03-07T12:38:18;99759.44;;;9.08;78.14
73870;BME280;64924;42.140;24.762;2024-03-07T12:40:44;99756.38;;;9.26;77.93
73870;BME280;64924;42.140;24.762;2024-03-07T12:45:52;99696.97;;;8.87;77.11
73870;BME280;64924;42.140;24.762;2024-03-07T12:48:19;99743.38;;;9.21;77.51
73870;BME280;64924;42.140;24.762;2024-03-07T12:50:47;99744.69;;;9.25;76.69
73870;BME280;64924;42.140;24.762;2024-03-07T12:53:15;99752.34;;;9.36;76.73
73870;BME280;64924;42.140;24.762;2024-03-07T12:55:43;99764.88;;;9.37;76.91
73870;BME280;64924;42.140;24.762;2024-03-07T12:58:09;99740.31;;;9.24;76.36
73870;BME280;64924;42.140;24.762;2024-03-07T13:00:38;99754.13;;;9.44;76.00
73870;BME280;64924;42.140;24.762;2024-03-07T13:03:04;99749.56;;;9.45;75.77
73870;BME280;64924;42.140;24.762;2024-03-07T13:05:30;99709.72;;;9.16;75.88
73870;BME280;64924;42.140;24.762;2024-03-07T13:07:56;99764.59;;;9.32;76.01
73870;BME280;64924;42.140;24.762;2024-03-07T13:10:22;99762.81;;;9.39;76.72
73870;BME280;64924;42.140;24.762;2024-03-07T13:12:49;99754.97;;;9.30;76.78